createdAt,value
2023-03-19T00:00:42.779Z,0.00
2023-03-19T00:01:45.359Z,0.00
2023-03-19T00:02:42.770Z,0.00
2023-03-19T00:03:42.790Z,0.00
2023-03-19T00:04:42.730Z,0.00
2023-03-19T00:05:42.741Z,0.00
2023-03-19T00:06:42.698Z,0.00
2023-03-19T00:07:42.687Z,0.00
2023-03-19T00:08:42.682Z,0.00
2023-03-19T00:09:42.658Z,0.00
2023-03-19T00:10:42.645Z,0.00
2023-03-19T00:11:42.650Z,0.00
2023-03-19T00:12:42.616Z,0.00
2023-03-19T00:13:42.615Z,0.00
2023-03-19T00:14:42.597Z,0.00
2023-03-19T00:15:42.575Z,0.00
2023-03-19T00:16:42.619Z,0.00
2023-03-19T00:17:42.550Z,0.00
2023-03-19T00:18:42.534Z,0.00
2023-03-19T00:19:42.525Z,0.00
2023-03-19T00:20:42.508Z,0.00
2023-03-19T00:21:42.520Z,0.00
2023-03-19T00:22:42.485Z,0.00
2023-03-19T00:23:42.472Z,0.00
2023-03-19T00:24:42.463Z,0.00
2023-03-19T00:25:42.442Z,0.00
2023-03-19T00:26:42.441Z,0.00
2023-03-19T00:27:42.417Z,0.00
2023-03-19T00:28:42.407Z,0.00
2023-03-19T00:29:42.388Z,0.00
2023-03-19T00:30:42.409Z,0.00
2023-03-19T00:31:42.372Z,0.00
2023-03-19T00:32:42.392Z,0.00
2023-03-19T00:33:42.329Z,0.00
2023-03-19T00:34:42.318Z,0.00
2023-03-19T00:35:42.363Z,0.00
2023-03-19T00:36:42.296Z,0.00
2023-03-19T00:37:42.298Z,0.00
2023-03-19T00:38:42.268Z,0.00
2023-03-19T00:39:42.251Z,0.00
2023-03-19T00:40:42.245Z,0.00
2023-03-19T00:41:42.225Z,0.00
2023-03-19T00:42:42.215Z,0.00
2023-03-19T00:43:42.206Z,0.00
2023-03-19T00:44:42.198Z,0.00
2023-03-19T00:45:42.237Z,0.00
2023-03-19T00:46:42.164Z,0.00
2023-03-19T00:47:42.155Z,0.00
2023-03-19T00:48:42.141Z,0.00
2023-03-19T00:49:42.125Z,0.00
2023-03-19T00:50:42.104Z,0.00
2023-03-19T00:51:42.084Z,0.00
2023-03-19T00:52:42.073Z,0.00
2023-03-19T00:53:42.081Z,0.00
2023-03-19T00:54:42.052Z,0.00
2023-03-19T00:55:42.036Z,0.00
2023-03-19T00:56:42.025Z,0.00
2023-03-19T00:57:42.008Z,0.00
2023-03-19T00:58:41.996Z,0.00
2023-03-19T00:59:41.978Z,0.00
2023-03-19T01:00:41.965Z,0.00
2023-03-19T01:01:42.025Z,0.00
2023-03-19T01:02:41.933Z,0.00
2023-03-19T01:03:41.937Z,0.00
2023-03-19T01:04:42.054Z,0.00
2023-03-19T01:05:41.902Z,0.00
2023-03-19T01:06:41.941Z,0.00
2023-03-19T01:07:41.869Z,0.00
2023-03-19T01:08:41.856Z,0.00
2023-03-19T01:09:41.871Z,0.00
2023-03-19T01:10:41.827Z,0.00
2023-03-19T01:11:41.807Z,0.00
2023-03-19T01:12:41.800Z,0.00
2023-03-19T01:13:41.780Z,0.00
2023-03-19T01:14:41.770Z,0.00
2023-03-19T01:15:41.756Z,0.00
2023-03-19T01:16:41.740Z,0.00
2023-03-19T01:17:41.728Z,0.00
2023-03-19T01:18:41.713Z,0.00
2023-03-19T01:19:41.703Z,0.00
2023-03-19T01:20:41.689Z,0.00
2023-03-19T01:21:41.672Z,0.00
2023-03-19T01:22:41.663Z,0.00
2023-03-19T01:23:41.648Z,0.00
2023-03-19T01:24:41.637Z,0.00
2023-03-19T01:25:41.646Z,0.00
2023-03-19T01:26:41.613Z,0.00
2023-03-19T01:27:42.039Z,0.00
2023-03-19T01:28:41.588Z,0.00
2023-03-19T01:29:41.561Z,0.00
2023-03-19T01:30:41.557Z,0.00
2023-03-19T01:31:41.537Z,0.00
2023-03-19T01:32:41.552Z,0.00
2023-03-19T01:33:41.512Z,0.00
2023-03-19T01:34:41.503Z,0.00
2023-03-19T01:35:41.568Z,0.00
2023-03-19T01:36:41.474Z,0.00
2023-03-19T01:37:41.451Z,0.00
2023-03-19T01:38:41.446Z,0.00
2023-03-19T01:39:41.432Z,0.00
2023-03-19T01:40:41.412Z,0.00
2023-03-19T01:41:41.423Z,0.00
2023-03-19T01:42:41.389Z,0.00
2023-03-19T01:43:41.414Z,0.00
2023-03-19T01:44:41.364Z,0.00
2023-03-19T01:45:41.365Z,0.00
2023-03-19T01:46:41.394Z,0.00
2023-03-19T01:47:41.323Z,0.00
2023-03-19T01:48:41.359Z,0.00
2023-03-19T01:49:41.297Z,0.00
2023-03-19T01:50:41.286Z,0.00
2023-03-19T01:51:41.259Z,0.00
2023-03-19T01:52:41.256Z,0.00
2023-03-19T01:53:41.237Z,0.00
2023-03-19T01:54:41.225Z,0.00
2023-03-19T01:55:41.206Z,0.00
2023-03-19T01:56:41.196Z,0.00
2023-03-19T01:57:41.216Z,0.00
2023-03-19T01:58:41.167Z,0.00
2023-03-19T01:59:41.167Z,0.00
2023-03-19T02:00:41.146Z,0.00
2023-03-19T02:01:41.228Z,0.00
2023-03-19T02:02:41.115Z,0.00
2023-03-19T02:03:41.099Z,0.00
2023-03-19T02:04:41.145Z,0.00
2023-03-19T02:05:41.083Z,0.00
2023-03-19T02:06:41.066Z,0.00
2023-03-19T02:07:41.052Z,0.00
2023-03-19T02:08:41.037Z,0.00
2023-03-19T02:09:41.021Z,0.00
2023-03-19T02:10:41.010Z,0.00
2023-03-19T02:11:40.994Z,0.00
2023-03-19T02:12:40.981Z,0.00
2023-03-19T02:13:40.993Z,0.00
2023-03-19T02:14:40.974Z,0.00
2023-03-19T02:15:41.074Z,0.00
2023-03-19T02:16:40.929Z,0.00
2023-03-19T02:17:40.936Z,0.00
2023-03-19T02:18:40.895Z,0.00
2023-03-19T02:19:40.879Z,0.00
2023-03-19T02:20:40.868Z,0.00
2023-03-19T02:21:40.877Z,0.00
2023-03-19T02:22:40.837Z,0.00
2023-03-19T02:23:40.828Z,0.00
2023-03-19T02:24:40.824Z,0.00
2023-03-19T02:25:40.800Z,0.00
2023-03-19T02:26:40.790Z,0.00
2023-03-19T02:27:40.790Z,0.00
2023-03-19T02:28:40.773Z,0.00
2023-03-19T02:29:40.781Z,0.00
2023-03-19T02:30:40.735Z,0.00
2023-03-19T02:31:40.808Z,0.00
2023-03-19T02:32:40.768Z,0.00
2023-03-19T02:33:40.692Z,0.00
2023-03-19T02:34:40.676Z,0.00
2023-03-19T02:35:40.784Z,0.00
2023-03-19T02:36:40.655Z,0.00
2023-03-19T02:37:41.087Z,0.00
2023-03-19T02:38:40.627Z,0.00
2023-03-19T02:39:40.610Z,0.00
2023-03-19T02:40:40.596Z,0.00
2023-03-19T02:41:40.582Z,0.00
2023-03-19T02:42:40.571Z,0.00
2023-03-19T02:43:40.552Z,0.00
2023-03-19T02:44:40.543Z,0.00
2023-03-19T02:45:40.548Z,0.00
2023-03-19T02:46:40.549Z,0.00
2023-03-19T02:47:40.497Z,0.00
2023-03-19T02:48:40.488Z,0.00
2023-03-19T02:49:40.472Z,0.00
2023-03-19T02:50:40.459Z,0.00
2023-03-19T02:51:40.447Z,0.00
2023-03-19T02:52:40.428Z,0.00
2023-03-19T02:53:40.416Z,0.00
2023-03-19T02:54:40.403Z,0.00
2023-03-19T02:55:40.381Z,0.00
2023-03-19T02:56:40.397Z,0.00
2023-03-19T02:57:40.359Z,0.00
2023-03-19T02:58:40.357Z,0.00
2023-03-19T02:59:40.380Z,0.00
2023-03-19T03:00:40.394Z,0.00
2023-03-19T03:01:40.427Z,0.00
2023-03-19T03:02:40.298Z,0.00
2023-03-19T03:03:40.304Z,0.00
2023-03-19T03:04:40.272Z,0.00
2023-03-19T03:05:40.259Z,0.00
2023-03-19T03:06:40.247Z,0.00
2023-03-19T03:07:40.239Z,0.00
2023-03-19T03:08:40.226Z,0.00
2023-03-19T03:09:40.211Z,0.00
2023-03-19T03:10:40.203Z,0.00
2023-03-19T03:11:40.210Z,0.00
2023-03-19T03:12:40.168Z,0.00
2023-03-19T03:13:40.158Z,0.00
2023-03-19T03:14:40.141Z,0.00
2023-03-19T03:15:40.126Z,0.00
2023-03-19T03:16:40.165Z,0.00
2023-03-19T03:17:40.129Z,0.00
2023-03-19T03:18:40.085Z,0.00
2023-03-19T03:19:40.076Z,0.00
2023-03-19T03:20:40.073Z,0.00
2023-03-19T03:21:40.066Z,0.00
2023-03-19T03:22:40.031Z,0.00
2023-03-19T03:23:40.043Z,0.00
2023-03-19T03:24:40.029Z,0.00
2023-03-19T03:25:40.042Z,0.00
2023-03-19T03:26:40.278Z,0.00
2023-03-19T03:27:39.961Z,0.00
2023-03-19T03:28:39.947Z,0.00
2023-03-19T03:29:40.035Z,0.00
2023-03-19T03:30:39.919Z,0.00
2023-03-19T03:31:39.960Z,0.00
2023-03-19T03:32:39.968Z,0.00
2023-03-19T03:33:39.897Z,0.00
2023-03-19T03:34:39.893Z,0.00
2023-03-19T03:35:39.910Z,0.00
2023-03-19T03:36:39.845Z,0.00
2023-03-19T03:37:39.977Z,0.00
2023-03-19T03:38:39.817Z,0.00
2023-03-19T03:39:39.797Z,0.00
2023-03-19T03:40:39.802Z,0.00
2023-03-19T03:41:39.774Z,0.00
2023-03-19T03:42:39.761Z,0.00
2023-03-19T03:43:39.749Z,0.00
2023-03-19T03:44:39.731Z,0.00
2023-03-19T03:45:39.797Z,0.00
2023-03-19T03:46:40.073Z,0.00
2023-03-19T03:47:39.722Z,0.00
2023-03-19T03:48:39.681Z,0.00
2023-03-19T03:49:39.689Z,0.00
2023-03-19T03:50:39.654Z,0.00
2023-03-19T03:51:39.642Z,0.00
2023-03-19T03:52:39.621Z,0.00
2023-03-19T03:53:39.611Z,0.00
2023-03-19T03:54:39.596Z,0.00
2023-03-19T03:55:39.580Z,0.00
2023-03-19T03:56:39.567Z,0.00
2023-03-19T03:57:39.554Z,0.00
2023-03-19T03:58:39.541Z,0.00
2023-03-19T03:59:39.536Z,0.00
2023-03-19T04:00:39.515Z,0.00
2023-03-19T04:01:39.511Z,0.00
2023-03-19T04:02:39.642Z,0.00
2023-03-19T04:03:39.531Z,0.00
2023-03-19T04:04:39.465Z,0.00
2023-03-19T04:05:39.573Z,0.00
2023-03-19T04:06:39.434Z,0.00
2023-03-19T04:07:39.418Z,0.00
2023-03-19T04:08:39.401Z,0.00
2023-03-19T04:09:39.390Z,0.00
2023-03-19T04:10:39.428Z,0.00
2023-03-19T04:11:39.367Z,0.00
2023-03-19T04:12:39.358Z,0.00
2023-03-19T04:13:39.339Z,0.00
2023-03-19T04:14:39.578Z,0.00
2023-03-19T04:15:39.311Z,0.00
2023-03-19T04:16:39.639Z,0.00
2023-03-19T04:17:39.280Z,0.00
2023-03-19T04:18:39.621Z,0.00
2023-03-19T04:19:39.255Z,0.00
2023-03-19T04:20:39.238Z,0.00
2023-03-19T04:21:39.552Z,0.00
2023-03-19T04:22:39.214Z,0.00
2023-03-19T04:23:39.208Z,0.00
2023-03-19T04:24:39.193Z,0.00
2023-03-19T04:25:39.179Z,0.00
2023-03-19T04:26:39.173Z,0.00
2023-03-19T04:27:39.151Z,0.00
2023-03-19T04:28:39.133Z,0.00
2023-03-19T04:29:39.128Z,0.00
2023-03-19T04:30:39.496Z,0.00
2023-03-19T04:31:39.846Z,0.00
2023-03-19T04:32:39.086Z,0.00
2023-03-19T04:33:39.062Z,0.00
2023-03-19T04:34:39.050Z,0.00
2023-03-19T04:35:39.082Z,0.00
2023-03-19T04:36:39.021Z,0.00
2023-03-19T04:37:39.033Z,0.00
2023-03-19T04:38:38.994Z,0.00
2023-03-19T04:39:38.986Z,0.00
2023-03-19T04:40:38.983Z,0.00
2023-03-19T04:41:38.960Z,0.00
2023-03-19T04:42:38.950Z,0.00
2023-03-19T04:43:38.930Z,0.00
2023-03-19T04:44:38.915Z,0.00
2023-03-19T04:45:38.901Z,0.00
2023-03-19T04:46:38.897Z,0.00
2023-03-19T04:47:38.893Z,0.00
2023-03-19T04:48:38.866Z,0.00
2023-03-19T04:49:38.856Z,0.00
2023-03-19T04:50:38.835Z,0.00
2023-03-19T04:51:38.829Z,0.00
2023-03-19T04:52:38.818Z,0.00
2023-03-19T04:53:38.860Z,0.00
2023-03-19T04:54:38.784Z,0.00
2023-03-19T04:55:38.765Z,0.00
2023-03-19T04:56:38.763Z,0.00
2023-03-19T04:57:38.736Z,0.00
2023-03-19T04:58:38.725Z,0.00
2023-03-19T04:59:38.706Z,0.00
2023-03-19T05:00:38.695Z,0.00
2023-03-19T05:01:38.775Z,0.00
2023-03-19T05:02:38.671Z,0.00
2023-03-19T05:03:38.663Z,0.00
2023-03-19T05:04:38.642Z,0.00
2023-03-19T05:05:38.631Z,0.00
2023-03-19T05:06:38.621Z,0.00
2023-03-19T05:07:38.603Z,4.00
2023-03-19T05:08:38.592Z,4.00
2023-03-19T05:09:38.598Z,0.00
2023-03-19T05:10:38.558Z,4.00
2023-03-19T05:11:38.549Z,4.00
2023-03-19T05:12:38.538Z,4.00
2023-03-19T05:13:38.517Z,8.00
2023-03-19T05:14:38.501Z,8.00
2023-03-19T05:15:38.537Z,8.00
2023-03-19T05:16:38.478Z,8.00
2023-03-19T05:17:38.464Z,8.00
2023-03-19T05:18:41.190Z,12.00
2023-03-19T05:19:38.438Z,16.00
2023-03-19T05:20:38.435Z,20.00
2023-03-19T05:21:38.409Z,20.00
2023-03-19T05:22:38.392Z,28.00
2023-03-19T05:23:38.376Z,28.00
2023-03-19T05:24:38.372Z,36.00
2023-03-19T05:25:38.417Z,44.00
2023-03-19T05:26:38.344Z,52.00
2023-03-19T05:27:38.321Z,64.00
2023-03-19T05:28:38.313Z,72.00
2023-03-19T05:29:40.843Z,84.00
2023-03-19T05:30:38.288Z,96.00
2023-03-19T05:31:38.277Z,112.00
2023-03-19T05:32:38.358Z,124.00
2023-03-19T05:33:38.250Z,132.00
2023-03-19T05:34:38.232Z,140.00
2023-03-19T05:35:38.265Z,148.00
2023-03-19T05:36:38.756Z,160.00
2023-03-19T05:37:38.194Z,168.00
2023-03-19T05:38:38.176Z,184.00
2023-03-19T05:39:38.162Z,192.00
2023-03-19T05:40:38.151Z,204.00
2023-03-19T05:41:38.156Z,224.00
2023-03-19T05:42:38.129Z,248.00
2023-03-19T05:43:38.107Z,276.00
2023-03-19T05:44:38.092Z,296.00
2023-03-19T05:45:38.075Z,312.00
2023-03-19T05:46:38.178Z,328.00
2023-03-19T05:47:38.200Z,336.00
2023-03-19T05:48:38.042Z,344.00
2023-03-19T05:49:38.023Z,340.00
2023-03-19T05:50:38.021Z,340.00
2023-03-19T05:51:37.998Z,340.00
2023-03-19T05:52:37.982Z,340.00
2023-03-19T05:53:37.969Z,344.00
2023-03-19T05:54:37.969Z,348.00
2023-03-19T05:55:37.946Z,356.00
2023-03-19T05:56:37.940Z,356.00
2023-03-19T05:57:37.942Z,356.00
2023-03-19T05:58:37.900Z,344.00
2023-03-19T05:59:37.889Z,324.00
2023-03-19T06:00:37.879Z,300.00
2023-03-19T06:01:37.912Z,296.00
2023-03-19T06:02:37.913Z,300.00
2023-03-19T06:03:37.887Z,308.00
2023-03-19T06:04:37.819Z,312.00
2023-03-19T06:05:37.810Z,316.00
2023-03-19T06:06:37.797Z,324.00
2023-03-19T06:07:37.776Z,344.00
2023-03-19T06:08:37.760Z,372.00
2023-03-19T06:09:37.747Z,412.00
2023-03-19T06:10:37.739Z,452.00
2023-03-19T06:11:37.727Z,508.00
2023-03-19T06:12:37.715Z,532.00
2023-03-19T06:13:37.723Z,528.00
2023-03-19T06:14:37.683Z,508.00
2023-03-19T06:15:37.670Z,508.00
2023-03-19T06:16:37.655Z,532.00
2023-03-19T06:17:37.640Z,580.00
2023-03-19T06:18:37.621Z,652.00
2023-03-19T06:19:37.613Z,728.00
2023-03-19T06:20:37.603Z,784.00
2023-03-19T06:21:37.589Z,840.00
2023-03-19T06:22:37.574Z,880.00
2023-03-19T06:23:37.566Z,908.00
2023-03-19T06:24:37.548Z,916.00
2023-03-19T06:25:37.555Z,924.00
2023-03-19T06:26:37.535Z,936.00
2023-03-19T06:27:37.501Z,948.00
2023-03-19T06:28:37.495Z,968.00
2023-03-19T06:29:37.506Z,1016.00
2023-03-19T06:30:37.484Z,1036.00
2023-03-19T06:31:37.465Z,1032.00
2023-03-19T06:32:37.527Z,1060.00
2023-03-19T06:33:37.424Z,1088.00
2023-03-19T06:34:37.412Z,1136.00
2023-03-19T06:35:37.434Z,1172.00
2023-03-19T06:36:37.392Z,1188.00
2023-03-19T06:37:37.370Z,1184.00
2023-03-19T06:38:37.355Z,1168.00
2023-03-19T06:39:37.345Z,1144.00
2023-03-19T06:40:37.333Z,1144.00
2023-03-19T06:41:37.328Z,1192.00
2023-03-19T06:42:37.451Z,1308.00
2023-03-19T06:43:37.425Z,1508.00
2023-03-19T06:44:37.276Z,1744.00
2023-03-19T06:45:37.380Z,1960.00
2023-03-19T06:46:37.251Z,2168.00
2023-03-19T06:47:37.236Z,2372.00
2023-03-19T06:48:37.690Z,2604.00
2023-03-19T06:49:37.204Z,2844.00
2023-03-19T06:50:37.200Z,3080.00
2023-03-19T06:51:37.187Z,3288.00
2023-03-19T06:52:37.177Z,3452.00
2023-03-19T06:53:37.158Z,3556.00
2023-03-19T06:54:38.461Z,3632.00
2023-03-19T06:55:37.124Z,3664.00
2023-03-19T06:56:37.113Z,3680.00
2023-03-19T06:57:37.101Z,3728.00
2023-03-19T06:58:37.087Z,3792.00
2023-03-19T06:59:37.068Z,3820.00
2023-03-19T07:00:37.242Z,3748.00
2023-03-19T07:01:37.067Z,3568.00
2023-03-19T07:02:37.031Z,3312.00
2023-03-19T07:03:37.021Z,3104.00
2023-03-19T07:04:37.006Z,2932.00
2023-03-19T07:05:36.994Z,2824.00
2023-03-19T07:06:36.979Z,2724.00
2023-03-19T07:07:36.966Z,2668.00
2023-03-19T07:08:36.961Z,2664.00
2023-03-19T07:09:36.942Z,2684.00
2023-03-19T07:10:37.324Z,2728.00
2023-03-19T07:11:36.912Z,2760.00
2023-03-19T07:12:36.913Z,2876.00
2023-03-19T07:13:36.879Z,2904.00
2023-03-19T07:14:36.889Z,2892.00
2023-03-19T07:15:36.873Z,2884.00
2023-03-19T07:16:37.075Z,2888.00
2023-03-19T07:17:36.848Z,2864.00
2023-03-19T07:18:36.821Z,2828.00
2023-03-19T07:19:36.806Z,2784.00
2023-03-19T07:20:37.177Z,2760.00
2023-03-19T07:21:36.786Z,2776.00
2023-03-19T07:22:36.760Z,2820.00
2023-03-19T07:23:37.038Z,2956.00
2023-03-19T07:24:36.730Z,3184.00
2023-03-19T07:25:36.714Z,3436.00
2023-03-19T07:26:36.716Z,3648.00
2023-03-19T07:27:36.692Z,3880.00
2023-03-19T07:28:36.683Z,4140.00
2023-03-19T07:29:36.664Z,4464.00
2023-03-19T07:30:36.739Z,4748.00
2023-03-19T07:31:36.672Z,4964.00
2023-03-19T07:32:36.653Z,5092.00
2023-03-19T07:33:36.637Z,5128.00
2023-03-19T07:34:36.596Z,5208.00
2023-03-19T07:35:36.652Z,5284.00
2023-03-19T07:36:36.578Z,5368.00
2023-03-19T07:37:36.555Z,5492.00
2023-03-19T07:38:36.554Z,5596.00
2023-03-19T07:39:36.525Z,5728.00
2023-03-19T07:40:36.842Z,5884.00
2023-03-19T07:41:36.494Z,6144.00
2023-03-19T07:42:36.560Z,6340.00
2023-03-19T07:43:36.472Z,6716.00
2023-03-19T07:44:36.474Z,6988.00
2023-03-19T07:45:36.508Z,7232.00
2023-03-19T07:46:36.438Z,7448.00
2023-03-19T07:47:36.418Z,7360.00
2023-03-19T07:48:36.407Z,7204.00
2023-03-19T07:49:36.415Z,7196.00
2023-03-19T07:50:36.519Z,7268.00
2023-03-19T07:51:36.359Z,7364.00
2023-03-19T07:52:36.395Z,7656.00
2023-03-19T07:53:36.334Z,8160.00
2023-03-19T07:54:36.325Z,8848.00
2023-03-19T07:55:38.311Z,9564.00
2023-03-19T07:56:36.315Z,10228.00
2023-03-19T07:57:36.279Z,10460.00
2023-03-19T07:58:36.272Z,10288.00
2023-03-19T07:59:36.247Z,9996.00
2023-03-19T08:00:36.718Z,9552.00
2023-03-19T08:01:36.220Z,9468.00
2023-03-19T08:02:36.286Z,9424.00
2023-03-19T08:03:36.199Z,9060.00
2023-03-19T08:04:36.302Z,8656.00
2023-03-19T08:05:36.204Z,8560.00
2023-03-19T08:06:36.198Z,8600.00
2023-03-19T08:07:36.141Z,8688.00
2023-03-19T08:08:36.135Z,8796.00
2023-03-19T08:09:36.293Z,8724.00
2023-03-19T08:10:37.975Z,8460.00
2023-03-19T08:11:36.095Z,8120.00
2023-03-19T08:12:36.078Z,7828.00
2023-03-19T08:13:36.061Z,7652.00
2023-03-19T08:14:36.049Z,7612.00
2023-03-19T08:15:36.032Z,7584.00
2023-03-19T08:16:36.064Z,7540.00
2023-03-19T08:17:36.006Z,7444.00
2023-03-19T08:18:35.986Z,7336.00
2023-03-19T08:19:35.970Z,7340.00
2023-03-19T08:20:36.439Z,7436.00
2023-03-19T08:21:35.971Z,7572.00
2023-03-19T08:22:35.945Z,7700.00
2023-03-19T08:23:35.936Z,7904.00
2023-03-19T08:24:35.905Z,8180.00
2023-03-19T08:25:36.079Z,8564.00
2023-03-19T08:26:35.885Z,8964.00
2023-03-19T08:27:35.866Z,9268.00
2023-03-19T08:28:35.857Z,9640.00
2023-03-19T08:29:35.856Z,9892.00
2023-03-19T08:30:36.434Z,10304.00
2023-03-19T08:31:35.815Z,10900.00
2023-03-19T08:32:35.851Z,11408.00
2023-03-19T08:33:35.788Z,11592.00
2023-03-19T08:34:35.802Z,11600.00
2023-03-19T08:35:35.839Z,11352.00
2023-03-19T08:36:35.749Z,10868.00
2023-03-19T08:37:35.811Z,10472.00
2023-03-19T08:38:35.721Z,10116.00
2023-03-19T08:39:35.703Z,9924.00
2023-03-19T08:40:36.338Z,9748.00
2023-03-19T08:41:35.679Z,9700.00
2023-03-19T08:42:35.681Z,9744.00
2023-03-19T08:43:35.662Z,9888.00
2023-03-19T08:44:35.639Z,10280.00
2023-03-19T08:45:35.629Z,11032.00
2023-03-19T08:46:35.748Z,12572.00
2023-03-19T08:47:35.598Z,13332.00
2023-03-19T08:48:35.594Z,19744.00
2023-03-19T08:49:35.582Z,14928.00
2023-03-19T08:50:35.876Z,16352.00
2023-03-19T08:51:35.549Z,13280.00
2023-03-19T08:52:35.538Z,12608.00
2023-03-19T08:53:35.541Z,12660.00
2023-03-19T08:54:35.506Z,12956.00
2023-03-19T08:55:35.492Z,13764.00
2023-03-19T08:56:35.480Z,14888.00
2023-03-19T08:57:35.460Z,14244.00
2023-03-19T08:58:35.445Z,16128.00
2023-03-19T08:59:35.438Z,24704.00
2023-03-19T09:00:35.744Z,22336.00
2023-03-19T09:01:35.485Z,43136.00
2023-03-19T09:02:35.393Z,42432.00
2023-03-19T09:03:35.377Z,40800.00
2023-03-19T09:04:35.444Z,31424.00
2023-03-19T09:05:35.365Z,19776.00
2023-03-19T09:06:35.345Z,16064.00
2023-03-19T09:07:35.367Z,17824.00
2023-03-19T09:08:35.316Z,25376.00
2023-03-19T09:09:35.324Z,17984.00
2023-03-19T09:10:35.670Z,35808.00
2023-03-19T09:11:35.306Z,40544.00
2023-03-19T09:12:35.260Z,41024.00
2023-03-19T09:13:35.246Z,42400.00
2023-03-19T09:14:35.227Z,41248.00
2023-03-19T09:15:35.547Z,40736.00
2023-03-19T09:16:35.197Z,34144.00
2023-03-19T09:17:35.187Z,40032.00
2023-03-19T09:18:35.176Z,40224.00
2023-03-19T09:19:35.178Z,36768.00
2023-03-19T09:20:35.156Z,36416.00
2023-03-19T09:21:35.136Z,35328.00
2023-03-19T09:22:35.377Z,36768.00
2023-03-19T09:23:35.109Z,35072.00
2023-03-19T09:24:35.100Z,29024.00
2023-03-19T09:25:35.656Z,27776.00
2023-03-19T09:26:35.073Z,38720.00
2023-03-19T09:27:35.053Z,18528.00
2023-03-19T09:28:35.038Z,35168.00
2023-03-19T09:29:35.044Z,16896.00
2023-03-19T09:30:35.015Z,17696.00
2023-03-19T09:31:35.098Z,17504.00
2023-03-19T09:32:35.098Z,17024.00
2023-03-19T09:33:35.073Z,16288.00
2023-03-19T09:34:34.962Z,16608.00
2023-03-19T09:35:35.292Z,16672.00
2023-03-19T09:36:34.935Z,24064.00
2023-03-19T09:37:35.173Z,21856.00
2023-03-19T09:38:35.065Z,33984.00
2023-03-19T09:39:35.047Z,19200.00
2023-03-19T09:40:34.888Z,29472.00
2023-03-19T09:41:34.897Z,31808.00
2023-03-19T09:42:34.852Z,25760.00
2023-03-19T09:43:34.844Z,22592.00
2023-03-19T09:44:34.840Z,21792.00
2023-03-19T09:45:35.391Z,20864.00
2023-03-19T09:46:34.822Z,20544.00
2023-03-19T09:47:34.790Z,19680.00
2023-03-19T09:48:34.785Z,19584.00
2023-03-19T09:49:34.764Z,19456.00
2023-03-19T09:50:34.794Z,20320.00
2023-03-19T09:51:34.737Z,20160.00
2023-03-19T09:52:34.720Z,20000.00
2023-03-19T09:53:34.710Z,22816.00
2023-03-19T09:54:34.705Z,15904.00
2023-03-19T09:55:34.924Z,17024.00
2023-03-19T09:56:34.677Z,17088.00
2023-03-19T09:57:34.682Z,17184.00
2023-03-19T09:58:34.640Z,16384.00
2023-03-19T09:59:34.634Z,17632.00
2023-03-19T10:00:34.618Z,17056.00
2023-03-19T10:01:34.637Z,16832.00
2023-03-19T10:02:34.592Z,15584.00
2023-03-19T10:03:34.663Z,20064.00
2023-03-19T10:04:34.566Z,17472.00
2023-03-19T10:05:34.726Z,19040.00
2023-03-19T10:06:34.538Z,19200.00
2023-03-19T10:07:34.528Z,17568.00
2023-03-19T10:08:34.521Z,17664.00
2023-03-19T10:09:34.500Z,18336.00
2023-03-19T10:10:34.485Z,20928.00
2023-03-19T10:11:34.845Z,22560.00
2023-03-19T10:12:34.454Z,22656.00
2023-03-19T10:13:34.469Z,21728.00
2023-03-19T10:14:34.431Z,15744.00
2023-03-19T10:15:34.661Z,21344.00
2023-03-19T10:16:34.469Z,20608.00
2023-03-19T10:17:34.389Z,22464.00
2023-03-19T10:18:34.377Z,22144.00
2023-03-19T10:19:34.712Z,20448.00
2023-03-19T10:20:34.350Z,17056.00
2023-03-19T10:21:34.341Z,19648.00
2023-03-19T10:22:34.318Z,22592.00
2023-03-19T10:23:34.315Z,21600.00
2023-03-19T10:24:34.302Z,22752.00
2023-03-19T10:25:34.524Z,24672.00
2023-03-19T10:26:34.274Z,24128.00
2023-03-19T10:27:34.268Z,30560.00
2023-03-19T10:28:34.248Z,28224.00
2023-03-19T10:29:34.257Z,19456.00
2023-03-19T10:30:34.226Z,19616.00
2023-03-19T10:31:34.284Z,26464.00
2023-03-19T10:32:34.236Z,23360.00
2023-03-19T10:33:34.429Z,23584.00
2023-03-19T10:34:34.162Z,23808.00
2023-03-19T10:35:34.575Z,27936.00
2023-03-19T10:36:34.149Z,30112.00
2023-03-19T10:37:34.130Z,21184.00
2023-03-19T10:38:34.118Z,21632.00
2023-03-19T10:39:34.107Z,20288.00
2023-03-19T10:40:34.082Z,24768.00
2023-03-19T10:41:34.079Z,25824.00
2023-03-19T10:42:34.058Z,21792.00
2023-03-19T10:43:34.047Z,22528.00
2023-03-19T10:44:34.041Z,22464.00
2023-03-19T10:45:34.599Z,19648.00
2023-03-19T10:46:34.005Z,22688.00
2023-03-19T10:47:33.998Z,22528.00
2023-03-19T10:48:33.991Z,18400.00
2023-03-19T10:49:33.971Z,18080.00
2023-03-19T10:50:33.956Z,17024.00
2023-03-19T10:51:33.943Z,17824.00
2023-03-19T10:52:33.931Z,18688.00
2023-03-19T10:53:33.925Z,19072.00
2023-03-19T10:54:33.904Z,20096.00
2023-03-19T10:55:34.203Z,19296.00
2023-03-19T10:56:34.089Z,19232.00
2023-03-19T10:57:33.857Z,18784.00
2023-03-19T10:58:33.849Z,18560.00
2023-03-19T10:59:33.831Z,19104.00
2023-03-19T11:00:33.820Z,19552.00
2023-03-19T11:01:34.026Z,20608.00
2023-03-19T11:02:33.788Z,19840.00
2023-03-19T11:03:33.811Z,17248.00
2023-03-19T11:04:33.768Z,16192.00
2023-03-19T11:05:34.122Z,15712.00
2023-03-19T11:06:33.736Z,18496.00
2023-03-19T11:07:33.728Z,20224.00
2023-03-19T11:08:36.009Z,19104.00
2023-03-19T11:09:33.708Z,19168.00
2023-03-19T11:10:33.690Z,17696.00
2023-03-19T11:11:33.668Z,17472.00
2023-03-19T11:12:33.654Z,18656.00
2023-03-19T11:13:33.647Z,23488.00
2023-03-19T11:14:33.622Z,25920.00
2023-03-19T11:15:33.861Z,22944.00
2023-03-19T11:16:33.709Z,18656.00
2023-03-19T11:17:33.606Z,18752.00
2023-03-19T11:18:33.670Z,18272.00
2023-03-19T11:19:33.557Z,21408.00
2023-03-19T11:20:33.613Z,25312.00
2023-03-19T11:21:33.525Z,28896.00
2023-03-19T11:22:33.526Z,18784.00
2023-03-19T11:23:33.505Z,17280.00
2023-03-19T11:24:33.503Z,26368.00
2023-03-19T11:25:33.827Z,22176.00
2023-03-19T11:26:33.462Z,20192.00
2023-03-19T11:27:33.457Z,20640.00
2023-03-19T11:28:33.435Z,19904.00
2023-03-19T11:29:33.423Z,19392.00
2023-03-19T11:30:33.417Z,20288.00
2023-03-19T11:31:33.484Z,23968.00
2023-03-19T11:32:33.563Z,19872.00
2023-03-19T11:33:33.490Z,24352.00
2023-03-19T11:34:33.362Z,27680.00
2023-03-19T11:35:33.659Z,25632.00
2023-03-19T11:36:33.334Z,28096.00
2023-03-19T11:37:33.311Z,38720.00
2023-03-19T11:38:33.300Z,46592.00
2023-03-19T11:39:33.281Z,47744.00
2023-03-19T11:40:33.271Z,48768.00
2023-03-19T11:41:33.286Z,51424.00
2023-03-19T11:42:33.251Z,54560.00
2023-03-19T11:43:33.229Z,59552.00
2023-03-19T11:44:33.218Z,49408.00
2023-03-19T11:45:33.488Z,29696.00
2023-03-19T11:46:33.258Z,36672.00
2023-03-19T11:47:33.186Z,33664.00
2023-03-19T11:48:33.168Z,37728.00
2023-03-19T11:49:33.182Z,39392.00
2023-03-19T11:50:33.142Z,30016.00
2023-03-19T11:51:33.128Z,27008.00
2023-03-19T11:52:33.118Z,28448.00
2023-03-19T11:53:33.110Z,17888.00
2023-03-19T11:54:33.089Z,17056.00
2023-03-19T11:55:33.329Z,25376.00
2023-03-19T11:56:33.059Z,35520.00
2023-03-19T11:57:33.050Z,35616.00
2023-03-19T11:58:33.049Z,32000.00
2023-03-19T11:59:33.022Z,28288.00
2023-03-19T12:00:33.007Z,36256.00
2023-03-19T12:01:33.155Z,39392.00
2023-03-19T12:02:33.062Z,30208.00
2023-03-19T12:03:33.003Z,18976.00
2023-03-19T12:04:32.959Z,17184.00
2023-03-19T12:05:33.263Z,15648.00
2023-03-19T12:06:32.925Z,14900.00
2023-03-19T12:07:32.921Z,14472.00
2023-03-19T12:08:32.991Z,13792.00
2023-03-19T12:09:32.896Z,13080.00
2023-03-19T12:10:33.157Z,12656.00
2023-03-19T12:11:32.865Z,13188.00
2023-03-19T12:12:32.867Z,14220.00
2023-03-19T12:13:32.895Z,16704.00
2023-03-19T12:14:32.822Z,22720.00
2023-03-19T12:15:33.097Z,25280.00
2023-03-19T12:16:32.798Z,26848.00
2023-03-19T12:17:32.788Z,30816.00
2023-03-19T12:18:32.968Z,35328.00
2023-03-19T12:19:32.757Z,34656.00
2023-03-19T12:20:32.745Z,38816.00
2023-03-19T12:21:32.776Z,38912.00
2023-03-19T12:22:32.724Z,20960.00
2023-03-19T12:23:35.829Z,17920.00
2023-03-19T12:24:32.697Z,16256.00
2023-03-19T12:25:32.955Z,15328.00
2023-03-19T12:26:32.668Z,14948.00
2023-03-19T12:27:32.655Z,14952.00
2023-03-19T12:28:32.637Z,14660.00
2023-03-19T12:29:32.632Z,14416.00
2023-03-19T12:30:32.605Z,14340.00